sensor_id;sensor_type;location;lat;lon;timestamp;noise_LAeq;noise_LA_min;noise_LA_max;noise_LA01;noise_LA95
66589;Laerm;53447;49.272;11.070;2023-04-03T00:02:01;40.74;36.02;44.16;;
66589;Laerm;53447;49.272;11.070;2023-04-03T00:04:26;40.15;35.62;42.01;;
66589;Laerm;53447;49.272;11.070;2023-04-03T00:06:51;41.20;37.31;44.20;;
66589;Laerm;53447;49.272;11.070;2023-04-03T00:09:17;40.72;37.02;53.34;;
66589;Laerm;53447;49.272;11.070;2023-04-03T00:11:42;40.38;36.20;42.44;;
66589;Laerm;53447;49.272;11.070;2023-04-03T00:14:07;49.06;37.31;68.26;;
66589;Laerm;53447;49.272;11.070;2023-04-03T00:16:32;41.30;38.08;46.70;;
66589;Laerm;53447;49.272;11.070;2023-04-03T00:18:58;41.18;37.71;47.73;;
66589;Laerm;53447;49.272;11.070;2023-04-03T00:21:23;41.19;37.31;43.19;;
66589;Laerm;53447;49.272;11.070;2023-04-03T00:23:49;41.58;37.96;46.11;;
66589;Laerm;53447;49.272;11.070;2023-04-03T00:26:14;40.79;35.82;43.51;;
66589;Laerm;53447;49.272;11.070;2023-04-03T00:28:39;40.90;37.71;42.65;;
66589;Laerm;53447;49.272;11.070;2023-04-03T00:31:04;41.00;37.31;46.05;;
66589;Laerm;53447;49.272;11.070;2023-04-03T00:33:30;42.05;37.02;49.76;;
66589;Laerm;53447;49.272;11.070;2023-04-03T00:35:55;40.79;36.55;43.70;;
66589;Laerm;53447;49.272;11.070;2023-04-03T00:38:20;42.31;39.88;43.54;;
66589;Laerm;53447;49.272;11.070;2023-04-03T00:40:46;41.70;37.84;43.44;;
66589;Laerm;53447;49.272;11.070;2023-04-03T00:43:30;41.97;37.71;50.13;;
66589;Laerm;53447;49.272;11.070;2023-04-03T00:45:56;40.90;37.45;42.85;;
66589;Laerm;53447;49.272;11.070;2023-04-03T00:48:24;41.46;38.53;44.16;;
66589;Laerm;53447;49.272;11.070;2023-04-03T00:50:50;41.40;38.31;44.04;;
66589;Laerm;53447;49.272;11.070;2023-04-03T00:53:19;41.27;38.20;42.89;;
66589;Laerm;53447;49.272;11.070;2023-04-03T00:55:47;40.92;37.96;42.49;;
66589;Laerm;53447;49.272;11.070;2023-04-03T00:58:13;41.11;37.84;42.73;;
66589;Laerm;53447;49.272;11.070;2023-04-03T01:00:40;41.40;38.08;43.19;;
66589;Laerm;53447;49.272;11.070;2023-04-03T01:03:08;41.15;38.08;42.81;;
66589;Laerm;53447;49.272;11.070;2023-04-03T01:05:34;40.79;36.02;42.66;;
66589;Laerm;53447;49.272;11.070;2023-04-03T01:08:00;40.75;36.87;42.65;;
66589;Laerm;53447;49.272;11.070;2023-04-03T01:10:25;41.05;37.17;43.19;;
66589;Laerm;53447;49.272;11.070;2023-04-03T01:12:51;42.17;39.56;46.45;;
66589;Laerm;53447;49.272;11.070;2023-04-03T01:15:18;41.03;37.58;42.73;;
66589;Laerm;53447;49.272;11.070;2023-04-03T01:25:18;41.14;37.71;43.08;;
66589;Laerm;53447;49.272;11.070;2023-04-03T01:27:43;41.04;38.20;42.65;;
66589;Laerm;53447;49.272;11.070;2023-04-03T01:30:09;41.11;38.31;42.65;;
66589;Laerm;53447;49.272;11.070;2023-04-03T01:32:34;41.19;38.08;42.57;;
66589;Laerm;53447;49.272;11.070;2023-04-03T01:34:59;41.69;38.68;43.64;;
66589;Laerm;53447;49.272;11.070;2023-04-03T01:37:25;42.43;40.18;43.80;;
66589;Laerm;53447;49.272;11.070;2023-04-03T01:39:50;42.42;40.66;43.64;;
66589;Laerm;53447;49.272;11.070;2023-04-03T01:42:15;42.03;38.42;43.67;;
66589;Laerm;53447;49.272;11.070;2023-04-03T01:44:41;40.92;38.08;42.49;;
66589;Laerm;53447;49.272;11.070;2023-04-03T01:47:06;40.81;38.08;42.65;;
66589;Laerm;53447;49.272;11.070;2023-04-03T01:49:32;40.94;37.96;42.44;;
66589;Laerm;53447;49.272;11.070;2023-04-03T01:51:57;40.94;37.71;42.73;;
66589;Laerm;53447;49.272;11.070;2023-04-03T01:54:22;41.14;38.42;45.52;;
66589;Laerm;53447;49.272;11.070;2023-04-03T01:56:48;42.07;39.56;50.06;;
66589;Laerm;53447;49.272;11.070;2023-04-03T01:59:13;41.07;37.84;42.57;;
66589;Laerm;53447;49.272;11.070;2023-04-03T02:01:38;41.13;37.96;42.69;;
66589;Laerm;53447;49.272;11.070;2023-04-03T02:04:03;41.25;38.63;43.83;;
66589;Laerm;53447;49.272;11.070;2023-04-03T02:06:29;42.46;40.39;43.73;;
66589;Laerm;53447;49.272;11.070;2023-04-03T02:08:54;42.28;38.83;43.54;;
66589;Laerm;53447;49.272;11.070;2023-04-03T02:11:19;41.00;38.63;42.40;;
66589;Laerm;53447;49.272;11.070;2023-04-03T02:13:45;41.20;38.31;42.89;;
66589;Laerm;53447;49.272;11.070;2023-04-03T02:16:10;41.22;38.53;43.36;;
66589;Laerm;53447;49.272;11.070;2023-04-03T02:18:36;41.08;38.42;43.12;;
66589;Laerm;53447;49.272;11.070;2023-04-03T02:21:02;41.30;38.93;43.08;;
66589;Laerm;53447;49.272;11.070;2023-04-03T02:23:27;41.09;38.73;42.65;;
66589;Laerm;53447;49.272;11.070;2023-04-03T02:25:52;41.04;38.31;42.69;;
66589;Laerm;53447;49.272;11.070;2023-04-03T02:28:18;41.49;38.53;43.44;;
66589;Laerm;53447;49.272;11.070;2023-04-03T02:30:43;42.44;40.32;43.73;;
66589;Laerm;53447;49.272;11.070;2023-04-03T02:33:08;42.26;40.03;43.95;;
66589;Laerm;53447;49.272;11.070;2023-04-03T02:35:33;41.50;39.12;43.15;;
66589;Laerm;53447;49.272;11.070;2023-04-03T02:37:59;41.35;38.42;42.81;;
66589;Laerm;53447;49.272;11.070;2023-04-03T02:40:24;41.46;39.12;43.51;;
66589;Laerm;53447;49.272;11.070;2023-04-03T02:42:49;41.61;39.21;43.61;;
66589;Laerm;53447;49.272;11.070;2023-04-03T02:45:14;41.62;39.46;44.70;;
66589;Laerm;53447;49.272;11.070;2023-04-03T02:47:40;42.37;39.21;50.38;;
66589;Laerm;53447;49.272;11.070;2023-04-03T02:50:05;41.56;39.03;45.56;;
66589;Laerm;53447;49.272;11.070;2023-04-03T02:52:30;42.23;39.30;44.25;;
66589;Laerm;53447;49.272;11.070;2023-04-03T02:54:55;42.32;39.39;44.04;;
66589;Laerm;53447;49.272;11.070;2023-04-03T02:57:21;42.48;40.59;43.70;;
66589;Laerm;53447;49.272;11.070;2023-04-03T02:59:46;41.62;38.73;43.77;;
66589;Laerm;53447;49.272;11.070;2023-04-03T03:02:11;41.39;39.03;43.54;;
66589;Laerm;53447;49.272;11.070;2023-04-03T03:04:36;42.47;40.32;43.77;;
66589;Laerm;53447;49.272;11.070;2023-04-03T03:07:02;42.56;40.25;48.93;;
66589;Laerm;53447;49.272;11.070;2023-04-03T03:11:55;42.52;40.53;43.98;;
66589;Laerm;53447;49.272;11.070;2023-04-03T03:14:20;42.58;39.03;43.83;;
66589;Laerm;53447;49.272;11.070;2023-04-03T03:16:46;42.55;40.66;43.73;;
66589;Laerm;53447;49.272;11.070;2023-04-03T03:19:11;41.86;39.21;43.61;;
66589;Laerm;53447;49.272;11.070;2023-04-03T03:21:36;41.60;39.39;43.04;;
66589;Laerm;53447;49.272;11.070;2023-04-03T03:24:01;41.60;39.12;43.26;;
66589;Laerm;53447;49.272;11.070;2023-04-03T03:26:27;41.52;39.21;43.15;;
66589;Laerm;53447;49.272;11.070;2023-04-03T03:28:52;41.79;39.64;43.33;;
66589;Laerm;53447;49.272;11.070;2023-04-03T03:31:17;41.70;39.56;43.04;;
66589;Laerm;53447;49.272;11.070;2023-04-03T03:33:43;41.89;39.30;43.51;;
66589;Laerm;53447;49.272;11.070;2023-04-03T03:36:08;42.53;39.64;43.86;;
66589;Laerm;53447;49.272;11.070;2023-04-03T03:38:33;42.59;40.72;43.73;;
66589;Laerm;53447;49.272;11.070;2023-04-03T03:40:59;42.63;40.59;44.19;;
66589;Laerm;53447;49.272;11.070;2023-04-03T03:43:24;42.14;39.56;47.85;;
66589;Laerm;53447;49.272;11.070;2023-04-03T03:45:50;41.90;39.48;43.73;;
66589;Laerm;53447;49.272;11.070;2023-04-03T03:48:16;43.02;40.03;52.20;;
66589;Laerm;53447;49.272;11.070;2023-04-03T03:50:42;41.75;39.13;46.26;;
66589;Laerm;53447;49.272;11.070;2023-04-03T03:53:10;41.95;39.21;43.83;;
66589;Laerm;53447;49.272;11.070;2023-04-03T03:55:35;42.45;40.46;44.49;;
66589;Laerm;53447;49.272;11.070;2023-04-03T03:58:01;47.60;40.03;65.45;;
66589;Laerm;53447;49.272;11.070;2023-04-03T04:00:26;53.36;40.72;68.30;;
66589;Laerm;53447;49.272;11.070;2023-04-03T04:02:55;54.70;40.32;71.15;;
66589;Laerm;53447;49.272;11.070;2023-04-03T04:05:28;55.08;40.18;71.69;;
66589;Laerm;53447;49.272;11.070;2023-04-03T04:08:03;55.18;41.21;71.93;;
66589;Laerm;53447;49.272;11.070;2023-04-03T04:13:29;52.25;41.03;63.88;;
66589;Laerm;53447;49.272;11.070;2023-04-03T04:16:11;52.48;40.72;68.43;;
66589;Laerm;53447;49.272;11.070;2023-04-03T04:19:04;51.13;40.66;68.75;;
66589;Laerm;53447;49.272;11.070;2023-04-03T04:21:39;51.16;40.86;63.13;;
66589;Laerm;53447;49.272;11.070;2023-04-03T04:24:28;56.14;41.32;72.92;;
66589;Laerm;53447;49.272;11.070;2023-04-03T04:27:04;55.47;40.97;66.29;;
66589;Laerm;53447;49.272;11.070;2023-04-03T04:29:54;56.81;41.48;72.47;;
66589;Laerm;53447;49.272;11.070;2023-04-03T04:32:31;56.02;41.64;67.04;;
66589;Laerm;53447;49.272;11.070;2023-04-03T04:34:56;55.57;42.22;65.70;;
66589;Laerm;53447;49.272;11.070;2023-04-03T04:37:22;56.24;42.65;67.62;;
66589;Laerm;53447;49.272;11.070;2023-04-03T04:39:47;56.46;42.57;66.81;;
66589;Laerm;53447;49.272;11.070;2023-04-03T04:42:12;57.37;41.89;72.13;;
66589;Laerm;53447;49.272;11.070;2023-04-03T04:44:40;54.01;41.03;67.61;;
66589;Laerm;53447;49.272;11.070;2023-04-03T04:47:05;55.32;41.48;65.92;;
66589;Laerm;53447;49.272;11.070;2023-04-03T04:49:31;55.00;41.69;67.78;;
66589;Laerm;53447;49.272;11.070;2023-04-03T04:51:56;50.33;41.74;65.08;;
66589;Laerm;53447;49.272;11.070;2023-04-03T04:54:21;50.29;41.59;66.37;;
66589;Laerm;53447;49.272;11.070;2023-04-03T04:56:47;50.51;40.91;64.40;;
66589;Laerm;53447;49.272;11.070;2023-04-03T04:59:12;51.21;40.85;64.39;;
66589;Laerm;53447;49.272;11.070;2023-04-03T05:01:37;52.47;41.14;72.19;;
66589;Laerm;53447;49.272;11.070;2023-04-03T05:04:03;55.13;41.43;72.95;;
66589;Laerm;53447;49.272;11.070;2023-04-03T05:06:28;51.47;41.54;65.45;;
66589;Laerm;53447;49.272;11.070;2023-04-03T05:08:55;53.81;41.59;66.77;;
66589;Laerm;53447;49.272;11.070;2023-04-03T05:11:20;58.39;40.91;88.60;;
66589;Laerm;53447;49.272;11.070;2023-04-03T05:13:46;51.66;41.09;65.77;;
66589;Laerm;53447;49.272;11.070;2023-04-03T05:16:11;57.28;41.32;72.82;;
66589;Laerm;53447;49.272;11.070;2023-04-03T05:18:36;52.47;41.32;67.36;;
66589;Laerm;53447;49.272;11.070;2023-04-03T05:21:01;52.07;41.32;66.32;;
66589;Laerm;53447;49.272;11.070;2023-04-03T05:23:27;53.80;41.15;70.05;;
66589;Laerm;53447;49.272;11.070;2023-04-03T05:25:52;55.16;41.59;68.58;;
66589;Laerm;53447;49.272;11.070;2023-04-03T05:28:17;54.40;41.09;68.48;;
66589;Laerm;53447;49.272;11.070;2023-04-03T05:30:43;56.44;41.09;72.37;;
66589;Laerm;53447;49.272;11.070;2023-04-03T05:33:08;53.56;40.97;68.84;;
66589;Laerm;53447;49.272;11.070;2023-04-03T05:35:35;47.61;41.03;67.86;;
66589;Laerm;53447;49.272;11.070;2023-04-03T05:38:00;44.30;40.91;62.26;;
66589;Laerm;53447;49.272;11.070;2023-04-03T05:40:26;44.49;40.85;65.56;;
66589;Laerm;53447;49.272;11.070;2023-04-03T05:42:51;55.87;41.21;71.50;;
66589;Laerm;53447;49.272;11.070;2023-04-03T05:45:18;46.22;40.72;63.00;;
66589;Laerm;53447;49.272;11.070;2023-04-03T05:47:43;52.13;40.59;71.11;;
66589;Laerm;53447;49.272;11.070;2023-04-03T05:50:09;53.12;41.89;72.64;;
66589;Laerm;53447;49.272;11.070;2023-04-03T05:52:35;52.22;41.64;69.04;;
66589;Laerm;53447;49.272;11.070;2023-04-03T05:55:02;53.69;41.64;69.56;;
66589;Laerm;53447;49.272;11.070;2023-04-03T05:57:27;53.97;41.03;68.89;;
66589;Laerm;53447;49.272;11.070;2023-04-03T05:59:52;60.78;41.09;80.79;;
66589;Laerm;53447;49.272;11.070;2023-04-03T06:02:19;49.39;40.91;68.49;;
66589;Laerm;53447;49.272;11.070;2023-04-03T06:04:45;55.74;41.26;70.19;;
66589;Laerm;53447;49.272;11.070;2023-04-03T06:07:14;53.79;40.72;67.86;;
66589;Laerm;53447;49.272;11.070;2023-04-03T06:09:41;50.78;40.97;64.63;;
66589;Laerm;53447;49.272;11.070;2023-04-03T06:12:06;54.49;41.09;67.54;;
66589;Laerm;53447;49.272;11.070;2023-04-03T06:14:31;57.65;41.35;72.94;;
66589;Laerm;53447;49.272;11.070;2023-04-03T06:16:57;55.65;40.72;73.09;;
66589;Laerm;53447;49.272;11.070;2023-04-03T06:19:22;53.38;40.46;65.57;;
66589;Laerm;53447;49.272;11.070;2023-04-03T06:21:47;52.03;40.72;66.03;;
66589;Laerm;53447;49.272;11.070;2023-04-03T06:24:14;51.12;40.85;63.72;;
66589;Laerm;53447;49.272;11.070;2023-04-03T06:26:40;56.55;40.85;70.34;;
66589;Laerm;53447;49.272;11.070;2023-04-03T06:29:05;54.21;41.03;67.68;;
66589;Laerm;53447;49.272;11.070;2023-04-03T06:31:31;50.68;41.32;66.21;;
66589;Laerm;53447;49.272;11.070;2023-04-03T06:33:56;54.20;40.85;70.20;;
66589;Laerm;53447;49.272;11.070;2023-04-03T06:36:22;53.83;41.26;71.07;;
66589;Laerm;53447;49.272;11.070;2023-04-03T06:38:47;56.73;41.03;78.36;;
66589;Laerm;53447;49.272;11.070;2023-04-03T06:41:13;51.49;40.85;69.22;;
66589;Laerm;53447;49.272;11.070;2023-04-03T06:43:38;51.02;40.32;64.93;;
66589;Laerm;53447;49.272;11.070;2023-04-03T06:46:04;52.20;40.32;71.01;;
66589;Laerm;53447;49.272;11.070;2023-04-03T06:48:30;55.32;40.18;72.86;;
66589;Laerm;53447;49.272;11.070;2023-04-03T06:50:55;54.36;40.59;69.77;;
66589;Laerm;53447;49.272;11.070;2023-04-03T06:53:20;55.07;40.80;74.28;;
66589;Laerm;53447;49.272;11.070;2023-04-03T06:55:46;59.25;41.15;74.55;;
66589;Laerm;53447;49.272;11.070;2023-04-03T06:58:12;53.48;40.85;70.42;;
66589;Laerm;53447;49.272;11.070;2023-04-03T07:00:37;50.02;40.59;66.56;;
66589;Laerm;53447;49.272;11.070;2023-04-03T07:03:02;53.10;39.96;70.32;;
66589;Laerm;53447;49.272;11.070;2023-04-03T07:05:28;50.23;40.46;65.67;;
66589;Laerm;53447;49.272;11.070;2023-04-03T07:07:53;51.57;39.12;67.09;;
66589;Laerm;53447;49.272;11.070;2023-04-03T07:10:18;53.64;41.21;69.22;;
66589;Laerm;53447;49.272;11.070;2023-04-03T07:12:44;52.47;39.21;66.78;;
66589;Laerm;53447;49.272;11.070;2023-04-03T07:15:09;52.88;40.66;72.09;;
66589;Laerm;53447;49.272;11.070;2023-04-03T07:17:35;52.15;40.66;69.46;;
66589;Laerm;53447;49.272;11.070;2023-04-03T07:20:02;55.76;39.64;73.07;;
66589;Laerm;53447;49.272;11.070;2023-04-03T07:22:27;52.17;38.73;71.18;;
66589;Laerm;53447;49.272;11.070;2023-04-03T07:24:53;51.87;40.25;66.53;;
66589;Laerm;53447;49.272;11.070;2023-04-03T07:27:18;49.12;39.03;64.90;;
66589;Laerm;53447;49.272;11.070;2023-04-03T07:29:44;54.33;40.39;73.22;;
66589;Laerm;53447;49.272;11.070;2023-04-03T07:32:10;53.59;40.25;72.95;;
66589;Laerm;53447;49.272;11.070;2023-04-03T07:34:36;54.31;41.15;72.42;;
66589;Laerm;53447;49.272;11.070;2023-04-03T07:37:01;60.46;40.72;84.70;;
66589;Laerm;53447;49.272;11.070;2023-04-03T07:39:27;52.45;41.09;62.85;;
66589;Laerm;53447;49.272;11.070;2023-04-03T07:41:53;49.35;40.11;64.45;;
66589;Laerm;53447;49.272;11.070;2023-04-03T07:44:20;52.49;40.25;69.15;;
66589;Laerm;53447;49.272;11.070;2023-04-03T07:46:45;47.76;40.79;63.06;;
66589;Laerm;53447;49.272;11.070;2023-04-03T07:49:11;55.02;40.97;69.89;;
66589;Laerm;53447;49.272;11.070;2023-04-03T07:51:37;54.08;40.91;70.68;;
66589;Laerm;53447;49.272;11.070;2023-04-03T07:54:02;45.47;39.56;60.35;;
66589;Laerm;53447;49.272;11.070;2023-04-03T07:56:27;46.71;40.39;63.89;;
66589;Laerm;53447;49.272;11.070;2023-04-03T07:58:53;50.77;37.96;65.47;;
66589;Laerm;53447;49.272;11.070;2023-04-03T08:01:18;47.72;40.46;75.09;;
66589;Laerm;53447;49.272;11.070;2023-04-03T08:03:43;54.27;40.72;72.44;;
66589;Laerm;53447;49.272;11.070;2023-04-03T08:06:09;51.77;42.49;63.60;;
66589;Laerm;53447;49.272;11.070;2023-04-03T08:08:35;56.94;40.11;74.77;;
66589;Laerm;53447;49.272;11.070;2023-04-03T08:11:00;48.39;40.03;62.85;;
66589;Laerm;53447;49.272;11.070;2023-04-03T08:13:27;47.28;40.32;64.62;;
66589;Laerm;53447;49.272;11.070;2023-04-03T08:15:52;46.86;38.08;62.78;;
66589;Laerm;53447;49.272;11.070;2023-04-03T08:18:18;48.82;39.91;63.77;;
66589;Laerm;53447;49.272;11.070;2023-04-03T08:20:46;44.73;38.63;59.20;;
66589;Laerm;53447;49.272;11.070;2023-04-03T08:23:11;50.60;39.39;67.77;;
66589;Laerm;53447;49.272;11.070;2023-04-03T08:25:38;48.68;40.11;63.66;;
66589;Laerm;53447;49.272;11.070;2023-04-03T08:28:03;52.50;39.72;70.87;;
66589;Laerm;53447;49.272;11.070;2023-04-03T08:30:29;47.83;40.46;59.72;;
66589;Laerm;53447;49.272;11.070;2023-04-03T08:32:54;44.14;39.80;57.87;;
66589;Laerm;53447;49.272;11.070;2023-04-03T08:35:19;46.89;39.72;63.32;;
66589;Laerm;53447;49.272;11.070;2023-04-03T08:37:45;50.26;40.66;64.48;;
66589;Laerm;53447;49.272;11.070;2023-04-03T08:40:13;52.04;39.13;70.71;;
66589;Laerm;53447;49.272;11.070;2023-04-03T08:42:44;47.72;39.80;63.33;;
66589;Laerm;53447;49.272;11.070;2023-04-03T08:45:13;46.15;39.21;67.78;;
66589;Laerm;53447;49.272;11.070;2023-04-03T08:47:42;48.02;37.96;63.73;;
66589;Laerm;53447;49.272;11.070;2023-04-03T08:50:12;46.16;38.42;65.42;;
66589;Laerm;53447;49.272;11.070;2023-04-03T08:52:42;47.46;36.87;63.47;;
66589;Laerm;53447;49.272;11.070;2023-04-03T08:55:22;52.81;40.85;69.34;;
66589;Laerm;53447;49.272;11.070;2023-04-03T08:57:48;52.83;39.39;73.38;;
66589;Laerm;53447;49.272;11.070;2023-04-03T09:02:44;54.26;40.38;68.41;;
66589;Laerm;53447;49.272;11.070;2023-04-03T09:05:12;49.73;39.21;63.77;;
66589;Laerm;53447;49.272;11.070;2023-04-03T09:07:39;46.38;37.96;61.33;;
66589;Laerm;53447;49.272;11.070;2023-04-03T09:10:07;46.26;38.20;61.10;;
66589;Laerm;53447;49.272;11.070;2023-04-03T09:12:39;43.86;37.31;58.55;;
66589;Laerm;53447;49.272;11.070;2023-04-03T09:17:41;48.23;39.12;64.97;;
66589;Laerm;53447;49.272;11.070;2023-04-03T09:22:41;45.24;38.20;61.96;;
66589;Laerm;53447;49.272;11.070;2023-04-03T09:27:36;47.37;37.17;63.93;;
66589;Laerm;53447;49.272;11.070;2023-04-03T09:30:02;46.43;39.69;65.08;;
66589;Laerm;53447;49.272;11.070;2023-04-03T09:32:32;47.56;37.84;62.89;;
66589;Laerm;53447;49.272;11.070;2023-04-03T09:34:59;46.30;38.53;69.78;;
66589;Laerm;53447;49.272;11.070;2023-04-03T09:37:33;42.52;36.02;56.62;;
66589;Laerm;53447;49.272;11.070;2023-04-03T09:40:03;44.25;39.21;57.66;;
66589;Laerm;53447;49.272;11.070;2023-04-03T09:42:42;48.33;38.42;63.50;;
66589;Laerm;53447;49.272;11.070;2023-04-03T09:45:18;52.23;39.03;70.46;;
66589;Laerm;53447;49.272;11.070;2023-04-03T09:47:46;44.27;39.30;59.98;;
66589;Laerm;53447;49.272;11.070;2023-04-03T09:52:38;55.49;38.93;75.62;;
66589;Laerm;53447;49.272;11.070;2023-04-03T09:57:38;48.22;38.20;68.85;;
66589;Laerm;53447;49.272;11.070;2023-04-03T10:00:04;45.56;39.21;62.77;;
66589;Laerm;53447;49.272;11.070;2023-04-03T10:02:32;52.38;41.21;69.48;;
66589;Laerm;53447;49.272;11.070;2023-04-03T10:04:59;51.24;39.80;66.31;;
66589;Laerm;53447;49.272;11.070;2023-04-03T10:07:29;47.83;40.03;64.44;;
66589;Laerm;53447;49.272;11.070;2023-04-03T10:09:58;48.29;38.42;67.95;;
66589;Laerm;53447;49.272;11.070;2023-04-03T10:12:24;43.42;37.17;52.28;;
66589;Laerm;53447;49.272;11.070;2023-04-03T10:19:58;44.34;39.12;54.45;;
66589;Laerm;53447;49.272;11.070;2023-04-03T10:22:45;53.49;40.32;68.87;;
66589;Laerm;53447;49.272;11.070;2023-04-03T10:32:50;45.04;39.12;59.11;;
66589;Laerm;53447;49.272;11.070;2023-04-03T10:43:49;45.03;38.63;58.03;;
66589;Laerm;53447;49.272;11.070;2023-04-03T10:46:27;49.96;37.58;67.90;;
66589;Laerm;53447;49.272;11.070;2023-04-03T10:49:16;54.27;37.84;74.72;;
66589;Laerm;53447;49.272;11.070;2023-04-03T10:51:48;50.68;37.96;70.80;;
66589;Laerm;53447;49.272;11.070;2023-04-03T10:56:50;47.07;38.08;64.38;;
66589;Laerm;53447;49.272;11.070;2023-04-03T10:59:33;51.46;36.87;69.90;;
66589;Laerm;53447;49.272;11.070;2023-04-03T11:02:01;42.95;36.02;58.45;;
66589;Laerm;53447;49.272;11.070;2023-04-03T11:04:30;50.70;37.45;79.33;;
66589;Laerm;53447;49.272;11.070;2023-04-03T11:07:01;46.05;38.83;58.08;;
66589;Laerm;53447;49.272;11.070;2023-04-03T11:09:31;46.08;38.63;62.64;;
66589;Laerm;53447;49.272;11.070;2023-04-03T11:12:02;55.39;39.03;71.90;;
66589;Laerm;53447;49.272;11.070;2023-04-03T11:14:34;49.85;39.03;68.08;;
66589;Laerm;53447;49.272;11.070;2023-04-03T11:20:15;54.85;37.96;71.76;;
66589;Laerm;53447;49.272;11.070;2023-04-03T11:22:33;44.18;39.56;59.59;;
66589;Laerm;53447;49.272;11.070;2023-04-03T11:27:42;47.74;39.48;61.40;;
66589;Laerm;53447;49.272;11.070;2023-04-03T11:30:19;54.11;38.31;71.00;;
66589;Laerm;53447;49.272;11.070;2023-04-03T11:35:29;44.20;38.83;57.45;;
66589;Laerm;53447;49.272;11.070;2023-04-03T11:37:55;44.94;38.53;62.57;;
66589;Laerm;53447;49.272;11.070;2023-04-03T11:40:25;51.48;39.12;70.79;;
66589;Laerm;53447;49.272;11.070;2023-04-03T11:42:53;46.47;38.53;60.07;;
66589;Laerm;53447;49.272;11.070;2023-04-03T11:47:52;52.43;38.20;72.37;;
66589;Laerm;53447;49.272;11.070;2023-04-03T11:50:37;43.30;38.93;56.58;;
66589;Laerm;53447;49.272;11.070;2023-04-03T12:03:29;47.75;39.21;58.93;;
66589;Laerm;53447;49.272;11.070;2023-04-03T12:05:52;46.26;38.08;57.15;;
66589;Laerm;53447;49.272;11.070;2023-04-03T12:08:29;46.17;37.71;62.03;;
66589;Laerm;53447;49.272;11.070;2023-04-03T12:29:21;50.68;38.83;64.22;;
66589;Laerm;53447;49.272;11.070;2023-04-03T12:31:58;51.83;39.64;63.22;;
66589;Laerm;53447;49.272;11.070;2023-04-03T12:40:00;52.72;40.18;71.27;;
66589;Laerm;53447;49.272;11.070;2023-04-03T12:42:40;42.71;38.93;56.83;;
66589;Laerm;53447;49.272;11.070;2023-04-03T12:47:42;50.64;39.64;68.55;;
66589;Laerm;53447;49.272;11.070;2023-04-03T12:50:50;55.33;38.49;72.58;;
66589;Laerm;53447;49.272;11.070;2023-04-03T12:53:04;51.84;37.02;68.09;;
66589;Laerm;53447;49.272;11.070;2023-04-03T12:55:31;55.60;36.71;70.61;;
66589;Laerm;53447;49.272;11.070;2023-04-03T12:57:56;52.48;38.42;72.52;;
66589;Laerm;53447;49.272;11.070;2023-04-03T13:00:27;53.06;38.63;72.71;;
66589;Laerm;53447;49.272;11.070;2023-04-03T13:02:53;46.69;39.03;61.51;;
66589;Laerm;53447;49.272;11.070;2023-04-03T13:05:19;48.18;39.48;71.72;;
66589;Laerm;53447;49.272;11.070;2023-04-03T13:07:49;49.14;38.53;65.11;;
66589;Laerm;53447;49.272;11.070;2023-04-03T13:10:17;52.45;38.83;69.67;;
66589;Laerm;53447;49.272;11.070;2023-04-03T13:12:53;48.28;40.72;63.28;;
66589;Laerm;53447;49.272;11.070;2023-04-03T13:15:24;52.97;40.25;75.89;;
66589;Laerm;53447;49.272;11.070;2023-04-03T13:17:51;46.24;40.18;67.25;;
66589;Laerm;53447;49.272;11.070;2023-04-03T13:20:22;44.85;39.96;59.50;;
66589;Laerm;53447;49.272;11.070;2023-04-03T13:22:49;44.24;38.42;60.30;;
66589;Laerm;53447;49.272;11.070;2023-04-03T13:25:16;58.70;38.42;73.90;;
66589;Laerm;53447;49.272;11.070;2023-04-03T13:27:43;49.67;39.39;67.53;;
66589;Laerm;53447;49.272;11.070;2023-04-03T13:30:23;43.92;38.63;60.72;;
66589;Laerm;53447;49.272;11.070;2023-04-03T13:32:49;50.46;38.73;70.45;;
66589;Laerm;53447;49.272;11.070;2023-04-03T13:35:32;52.48;38.20;71.71;;
66589;Laerm;53447;49.272;11.070;2023-04-03T13:37:59;43.83;39.96;64.05;;
66589;Laerm;53447;49.272;11.070;2023-04-03T13:40:25;44.69;40.11;62.67;;
66589;Laerm;53447;49.272;11.070;2023-04-03T13:43:01;46.66;38.42;64.23;;
66589;Laerm;53447;49.272;11.070;2023-04-03T13:45:28;46.90;40.63;62.75;;
66589;Laerm;53447;49.272;11.070;2023-04-03T13:48:17;50.43;39.12;66.83;;
66589;Laerm;53447;49.272;11.070;2023-04-03T13:53:17;45.98;38.93;63.44;;
66589;Laerm;53447;49.272;11.070;2023-04-03T13:55:53;49.21;35.82;73.51;;
66589;Laerm;53447;49.272;11.070;2023-04-03T13:58:25;46.45;38.83;63.41;;
66589;Laerm;53447;49.272;11.070;2023-04-03T14:05:47;45.67;38.20;57.68;;
66589;Laerm;53447;49.272;11.070;2023-04-03T14:08:12;43.61;36.71;54.54;;
66589;Laerm;53447;49.272;11.070;2023-04-03T14:10:37;47.91;41.35;61.22;;
66589;Laerm;53447;49.272;11.070;2023-04-03T14:13:03;52.26;39.48;69.63;;
66589;Laerm;53447;49.272;11.070;2023-04-03T14:15:29;51.00;38.63;70.30;;
66589;Laerm;53447;49.272;11.070;2023-04-03T14:17:56;53.39;36.87;73.48;;
66589;Laerm;53447;49.272;11.070;2023-04-03T14:20:22;51.55;40.46;75.15;;
66589;Laerm;53447;49.272;11.070;2023-04-03T14:22:48;46.02;40.66;59.38;;
66589;Laerm;53447;49.272;11.070;2023-04-03T14:25:14;45.44;40.53;62.32;;
66589;Laerm;53447;49.272;11.070;2023-04-03T14:27:41;43.92;39.72;58.52;;
66589;Laerm;53447;49.272;11.070;2023-04-03T14:30:09;60.00;40.85;81.26;;
66589;Laerm;53447;49.272;11.070;2023-04-03T14:32:34;50.76;38.95;67.52;;
66589;Laerm;53447;49.272;11.070;2023-04-03T14:35:00;53.46;39.96;69.84;;
66589;Laerm;53447;49.272;11.070;2023-04-03T14:37:27;51.88;40.03;66.53;;
66589;Laerm;53447;49.272;11.070;2023-04-03T14:39:54;51.08;37.71;64.81;;
66589;Laerm;53447;49.272;11.070;2023-04-03T14:42:21;53.15;39.39;68.49;;
66589;Laerm;53447;49.272;11.070;2023-04-03T14:44:47;49.08;41.32;62.14;;
66589;Laerm;53447;49.272;11.070;2023-04-03T14:47:14;47.65;41.26;63.03;;
66589;Laerm;53447;49.272;11.070;2023-04-03T14:49:41;53.81;39.72;72.71;;
66589;Laerm;53447;49.272;11.070;2023-04-03T14:52:06;51.88;39.80;69.37;;
66589;Laerm;53447;49.272;11.070;2023-04-03T14:54:32;52.60;39.72;67.87;;
66589;Laerm;53447;49.272;11.070;2023-04-03T14:56:57;55.22;40.31;72.21;;
66589;Laerm;53447;49.272;11.070;2023-04-03T14:59:24;45.72;36.87;60.41;;
66589;Laerm;53447;49.272;11.070;2023-04-03T15:01:50;49.63;39.48;67.85;;
66589;Laerm;53447;49.272;11.070;2023-04-03T15:04:16;54.73;40.39;71.86;;
66589;Laerm;53447;49.272;11.070;2023-04-03T15:06:42;51.25;40.46;68.89;;
66589;Laerm;53447;49.272;11.070;2023-04-03T15:09:40;51.39;39.30;67.28;;
66589;Laerm;53447;49.272;11.070;2023-04-03T15:11:59;49.21;39.88;67.74;;
66589;Laerm;53447;49.272;11.070;2023-04-03T15:14:24;46.62;38.20;57.85;;
66589;Laerm;53447;49.272;11.070;2023-04-03T15:16:49;52.34;37.96;70.70;;
66589;Laerm;53447;49.272;11.070;2023-04-03T15:19:14;47.66;38.73;62.75;;
66589;Laerm;53447;49.272;11.070;2023-04-03T15:21:40;57.61;38.93;74.09;;